sensor_id;sensor_type;location;lat;lon;timestamp;P1;durP1;ratioP1;P2;durP2;ratioP2
4674;SDS011;2351;50.812;12.872;2022-08-05T00:01:47;4.10;;;3.30;;
4674;SDS011;2351;50.812;12.872;2022-08-05T00:04:18;3.37;;;3.00;;
4674;SDS011;2351;50.812;12.872;2022-08-05T00:06:50;3.27;;;2.97;;
4674;SDS011;2351;50.812;12.872;2022-08-05T00:09:21;4.70;;;3.03;;
4674;SDS011;2351;50.812;12.872;2022-08-05T00:11:53;5.57;;;2.90;;
4674;SDS011;2351;50.812;12.872;2022-08-05T00:14:24;3.80;;;3.50;;
4674;SDS011;2351;50.812;12.872;2022-08-05T00:16:57;3.50;;;2.93;;
4674;SDS011;2351;50.812;12.872;2022-08-05T00:19:29;3.10;;;2.90;;
4674;SDS011;2351;50.812;12.872;2022-08-05T00:22:01;3.07;;;2.87;;
4674;SDS011;2351;50.812;12.872;2022-08-05T00:24:33;3.90;;;3.33;;
4674;SDS011;2351;50.812;12.872;2022-08-05T00:27:05;6.33;;;3.73;;
4674;SDS011;2351;50.812;12.872;2022-08-05T00:29:36;2.83;;;2.63;;
4674;SDS011;2351;50.812;12.872;2022-08-05T00:32:09;4.80;;;3.17;;
4674;SDS011;2351;50.812;12.872;2022-08-05T00:34:42;3.23;;;2.93;;
4674;SDS011;2351;50.812;12.872;2022-08-05T00:37:15;4.50;;;3.33;;
4674;SDS011;2351;50.812;12.872;2022-08-05T00:39:46;6.83;;;3.80;;
4674;SDS011;2351;50.812;12.872;2022-08-05T00:42:28;3.10;;;2.83;;
4674;SDS011;2351;50.812;12.872;2022-08-05T00:45:00;4.10;;;2.97;;
4674;SDS011;2351;50.812;12.872;2022-08-05T00:47:33;3.47;;;2.87;;
4674;SDS011;2351;50.812;12.872;2022-08-05T00:50:06;3.57;;;3.27;;
4674;SDS011;2351;50.812;12.872;2022-08-05T00:52:38;4.37;;;3.47;;
4674;SDS011;2351;50.812;12.872;2022-08-05T00:55:10;3.57;;;3.27;;
4674;SDS011;2351;50.812;12.872;2022-08-05T00:57:42;4.57;;;3.67;;
4674;SDS011;2351;50.812;12.872;2022-08-05T01:00:13;3.30;;;2.90;;
4674;SDS011;2351;50.812;12.872;2022-08-05T01:02:46;4.23;;;3.80;;
4674;SDS011;2351;50.812;12.872;2022-08-05T01:05:18;3.90;;;3.60;;
4674;SDS011;2351;50.812;12.872;2022-08-05T01:07:50;5.60;;;4.13;;
4674;SDS011;2351;50.812;12.872;2022-08-05T01:10:23;4.50;;;3.53;;
4674;SDS011;2351;50.812;12.872;2022-08-05T01:13:09;3.60;;;3.30;;
4674;SDS011;2351;50.812;12.872;2022-08-05T01:15:49;5.00;;;3.77;;
4674;SDS011;2351;50.812;12.872;2022-08-05T01:18:32;10.33;;;3.77;;
4674;SDS011;2351;50.812;12.872;2022-08-05T01:21:09;7.60;;;3.90;;
4674;SDS011;2351;50.812;12.872;2022-08-05T01:23:54;4.60;;;3.20;;
4674;SDS011;2351;50.812;12.872;2022-08-05T01:26:34;3.90;;;3.50;;
4674;SDS011;2351;50.812;12.872;2022-08-05T01:29:18;3.60;;;3.30;;
4674;SDS011;2351;50.812;12.872;2022-08-05T01:31:55;4.10;;;3.30;;
4674;SDS011;2351;50.812;12.872;2022-08-05T01:34:31;4.37;;;3.57;;
4674;SDS011;2351;50.812;12.872;2022-08-05T01:37:08;3.90;;;3.60;;
4674;SDS011;2351;50.812;12.872;2022-08-05T01:39:46;4.37;;;3.33;;
4674;SDS011;2351;50.812;12.872;2022-08-05T01:42:19;4.17;;;3.50;;
4674;SDS011;2351;50.812;12.872;2022-08-05T01:44:56;4.50;;;3.43;;
4674;SDS011;2351;50.812;12.872;2022-08-05T01:47:30;3.63;;;3.30;;
4674;SDS011;2351;50.812;12.872;2022-08-05T01:50:05;3.20;;;2.90;;
4674;SDS011;2351;50.812;12.872;2022-08-05T01:52:40;3.60;;;3.30;;
4674;SDS011;2351;50.812;12.872;2022-08-05T01:55:14;3.60;;;3.30;;
4674;SDS011;2351;50.812;12.872;2022-08-05T01:57:48;3.57;;;3.27;;
4674;SDS011;2351;50.812;12.872;2022-08-05T02:00:24;4.20;;;3.70;;
4674;SDS011;2351;50.812;12.872;2022-08-05T02:02:57;4.60;;;4.00;;
4674;SDS011;2351;50.812;12.872;2022-08-05T02:05:32;4.03;;;3.63;;
4674;SDS011;2351;50.812;12.872;2022-08-05T02:08:06;6.20;;;3.53;;
4674;SDS011;2351;50.812;12.872;2022-08-05T02:10:38;4.17;;;3.40;;
4674;SDS011;2351;50.812;12.872;2022-08-05T02:13:14;9.70;;;5.10;;
4674;SDS011;2351;50.812;12.872;2022-08-05T02:15:52;8.77;;;5.33;;
4674;SDS011;2351;50.812;12.872;2022-08-05T02:18:29;7.53;;;4.63;;
4674;SDS011;2351;50.812;12.872;2022-08-05T02:21:08;7.20;;;4.60;;
4674;SDS011;2351;50.812;12.872;2022-08-05T02:23:44;5.43;;;4.40;;
4674;SDS011;2351;50.812;12.872;2022-08-05T02:26:20;6.93;;;4.93;;
4674;SDS011;2351;50.812;12.872;2022-08-05T02:28:54;6.40;;;4.53;;
4674;SDS011;2351;50.812;12.872;2022-08-05T02:31:29;7.33;;;4.23;;
4674;SDS011;2351;50.812;12.872;2022-08-05T02:34:04;6.40;;;4.17;;
4674;SDS011;2351;50.812;12.872;2022-08-05T02:36:40;4.07;;;3.70;;
4674;SDS011;2351;50.812;12.872;2022-08-05T02:39:14;6.97;;;4.80;;
4674;SDS011;2351;50.812;12.872;2022-08-05T02:41:48;5.80;;;3.87;;
4674;SDS011;2351;50.812;12.872;2022-08-05T02:44:20;6.63;;;4.87;;
4674;SDS011;2351;50.812;12.872;2022-08-05T02:46:57;5.80;;;4.27;;
4674;SDS011;2351;50.812;12.872;2022-08-05T02:49:30;5.13;;;4.03;;
4674;SDS011;2351;50.812;12.872;2022-08-05T02:52:07;5.03;;;4.37;;
4674;SDS011;2351;50.812;12.872;2022-08-05T02:54:40;5.20;;;4.50;;
4674;SDS011;2351;50.812;12.872;2022-08-05T02:57:13;7.73;;;5.10;;
4674;SDS011;2351;50.812;12.872;2022-08-05T02:59:47;8.20;;;4.70;;
4674;SDS011;2351;50.812;12.872;2022-08-05T03:02:23;5.40;;;4.37;;
4674;SDS011;2351;50.812;12.872;2022-08-05T03:04:58;7.37;;;4.47;;
4674;SDS011;2351;50.812;12.872;2022-08-05T03:07:31;7.97;;;4.30;;
4674;SDS011;2351;50.812;12.872;2022-08-05T03:10:04;5.37;;;4.67;;
4674;SDS011;2351;50.812;12.872;2022-08-05T03:12:36;7.23;;;4.13;;
4674;SDS011;2351;50.812;12.872;2022-08-05T03:15:09;5.80;;;4.17;;
4674;SDS011;2351;50.812;12.872;2022-08-05T03:17:43;4.67;;;4.00;;
4674;SDS011;2351;50.812;12.872;2022-08-05T03:20:14;6.30;;;4.27;;
4674;SDS011;2351;50.812;12.872;2022-08-05T03:22:46;4.33;;;3.40;;
4674;SDS011;2351;50.812;12.872;2022-08-05T03:25:17;4.50;;;3.80;;
4674;SDS011;2351;50.812;12.872;2022-08-05T03:27:52;4.77;;;3.43;;
4674;SDS011;2351;50.812;12.872;2022-08-05T03:30:24;5.97;;;4.20;;
4674;SDS011;2351;50.812;12.872;2022-08-05T03:32:59;6.77;;;4.37;;
4674;SDS011;2351;50.812;12.872;2022-08-05T03:35:32;5.77;;;4.40;;
4674;SDS011;2351;50.812;12.872;2022-08-05T03:38:03;9.23;;;4.20;;
4674;SDS011;2351;50.812;12.872;2022-08-05T03:40:38;4.70;;;3.97;;
4674;SDS011;2351;50.812;12.872;2022-08-05T03:43:10;4.90;;;3.90;;
4674;SDS011;2351;50.812;12.872;2022-08-05T03:45:42;7.50;;;3.80;;
4674;SDS011;2351;50.812;12.872;2022-08-05T03:48:15;5.63;;;3.90;;
4674;SDS011;2351;50.812;12.872;2022-08-05T03:50:49;7.57;;;3.47;;
4674;SDS011;2351;50.812;12.872;2022-08-05T03:53:26;6.90;;;3.53;;
4674;SDS011;2351;50.812;12.872;2022-08-05T03:56:02;5.60;;;3.30;;
4674;SDS011;2351;50.812;12.872;2022-08-05T03:58:37;4.63;;;3.43;;
4674;SDS011;2351;50.812;12.872;2022-08-05T04:01:13;4.00;;;3.13;;
4674;SDS011;2351;50.812;12.872;2022-08-05T04:03:49;3.63;;;3.07;;
4674;SDS011;2351;50.812;12.872;2022-08-05T04:06:22;4.13;;;3.27;;
4674;SDS011;2351;50.812;12.872;2022-08-05T04:08:54;9.73;;;3.30;;
4674;SDS011;2351;50.812;12.872;2022-08-05T04:11:27;4.57;;;3.20;;
4674;SDS011;2351;50.812;12.872;2022-08-05T04:13:59;4.53;;;3.33;;
4674;SDS011;2351;50.812;12.872;2022-08-05T04:16:31;4.47;;;3.50;;
4674;SDS011;2351;50.812;12.872;2022-08-05T04:19:05;4.87;;;3.40;;
4674;SDS011;2351;50.812;12.872;2022-08-05T04:21:41;4.90;;;3.67;;
4674;SDS011;2351;50.812;12.872;2022-08-05T04:24:12;3.83;;;3.40;;
4674;SDS011;2351;50.812;12.872;2022-08-05T04:26:44;8.10;;;3.97;;
4674;SDS011;2351;50.812;12.872;2022-08-05T04:29:16;5.17;;;3.77;;
4674;SDS011;2351;50.812;12.872;2022-08-05T04:31:48;8.00;;;4.50;;
4674;SDS011;2351;50.812;12.872;2022-08-05T04:34:21;7.73;;;5.67;;
4674;SDS011;2351;50.812;12.872;2022-08-05T04:36:52;9.30;;;5.20;;
4674;SDS011;2351;50.812;12.872;2022-08-05T04:39:24;7.50;;;4.47;;
4674;SDS011;2351;50.812;12.872;2022-08-05T04:41:56;7.90;;;5.27;;
4674;SDS011;2351;50.812;12.872;2022-08-05T04:44:27;8.53;;;5.10;;
4674;SDS011;2351;50.812;12.872;2022-08-05T04:46:59;14.90;;;5.53;;
4674;SDS011;2351;50.812;12.872;2022-08-05T04:49:32;8.50;;;4.80;;
4674;SDS011;2351;50.812;12.872;2022-08-05T04:52:04;7.40;;;4.87;;
4674;SDS011;2351;50.812;12.872;2022-08-05T04:54:36;9.40;;;4.33;;
4674;SDS011;2351;50.812;12.872;2022-08-05T04:57:07;9.30;;;4.70;;
4674;SDS011;2351;50.812;12.872;2022-08-05T04:59:39;6.80;;;4.47;;
4674;SDS011;2351;50.812;12.872;2022-08-05T05:02:10;5.60;;;4.77;;
4674;SDS011;2351;50.812;12.872;2022-08-05T05:04:43;8.40;;;4.87;;
4674;SDS011;2351;50.812;12.872;2022-08-05T05:07:15;13.70;;;5.17;;
4674;SDS011;2351;50.812;12.872;2022-08-05T05:09:47;10.90;;;5.23;;
4674;SDS011;2351;50.812;12.872;2022-08-05T05:12:18;9.47;;;4.23;;
4674;SDS011;2351;50.812;12.872;2022-08-05T05:14:50;6.70;;;4.40;;
4674;SDS011;2351;50.812;12.872;2022-08-05T05:17:21;5.50;;;3.47;;
4674;SDS011;2351;50.812;12.872;2022-08-05T05:19:54;7.30;;;4.50;;
4674;SDS011;2351;50.812;12.872;2022-08-05T05:22:26;10.53;;;4.60;;
4674;SDS011;2351;50.812;12.872;2022-08-05T05:24:57;27.80;;;4.20;;
4674;SDS011;2351;50.812;12.872;2022-08-05T05:27:29;8.07;;;4.70;;
4674;SDS011;2351;50.812;12.872;2022-08-05T05:30:02;10.73;;;4.40;;
4674;SDS011;2351;50.812;12.872;2022-08-05T05:32:35;12.03;;;3.57;;
4674;SDS011;2351;50.812;12.872;2022-08-05T05:35:08;10.57;;;4.60;;
4674;SDS011;2351;50.812;12.872;2022-08-05T05:37:47;6.63;;;4.13;;
4674;SDS011;2351;50.812;12.872;2022-08-05T05:40:19;4.37;;;3.70;;
4674;SDS011;2351;50.812;12.872;2022-08-05T05:42:52;9.43;;;4.10;;
4674;SDS011;2351;50.812;12.872;2022-08-05T05:45:24;14.20;;;4.70;;
4674;SDS011;2351;50.812;12.872;2022-08-05T05:47:56;6.17;;;4.30;;
4674;SDS011;2351;50.812;12.872;2022-08-05T05:50:30;6.43;;;4.47;;
4674;SDS011;2351;50.812;12.872;2022-08-05T05:53:02;9.40;;;4.90;;
4674;SDS011;2351;50.812;12.872;2022-08-05T05:55:33;6.47;;;3.60;;
4674;SDS011;2351;50.812;12.872;2022-08-05T05:58:05;18.23;;;4.77;;
4674;SDS011;2351;50.812;12.872;2022-08-05T06:00:37;5.37;;;4.00;;
4674;SDS011;2351;50.812;12.872;2022-08-05T06:03:08;15.77;;;5.00;;
4674;SDS011;2351;50.812;12.872;2022-08-05T06:05:41;6.73;;;4.20;;
4674;SDS011;2351;50.812;12.872;2022-08-05T06:08:13;10.10;;;4.13;;
4674;SDS011;2351;50.812;12.872;2022-08-05T06:10:44;10.93;;;5.10;;
4674;SDS011;2351;50.812;12.872;2022-08-05T06:13:16;5.93;;;4.80;;
4674;SDS011;2351;50.812;12.872;2022-08-05T06:15:47;6.53;;;5.23;;
4674;SDS011;2351;50.812;12.872;2022-08-05T06:18:19;6.67;;;4.10;;
4674;SDS011;2351;50.812;12.872;2022-08-05T06:20:52;8.70;;;5.30;;
4674;SDS011;2351;50.812;12.872;2022-08-05T06:23:23;5.27;;;4.63;;
4674;SDS011;2351;50.812;12.872;2022-08-05T06:25:55;11.63;;;4.47;;
4674;SDS011;2351;50.812;12.872;2022-08-05T06:28:26;11.00;;;4.70;;
4674;SDS011;2351;50.812;12.872;2022-08-05T06:30:58;6.40;;;4.50;;
4674;SDS011;2351;50.812;12.872;2022-08-05T06:33:29;7.23;;;4.60;;
4674;SDS011;2351;50.812;12.872;2022-08-05T06:36:03;5.80;;;4.20;;
4674;SDS011;2351;50.812;12.872;2022-08-05T06:38:35;6.73;;;3.90;;
4674;SDS011;2351;50.812;12.872;2022-08-05T06:41:06;6.97;;;4.93;;
4674;SDS011;2351;50.812;12.872;2022-08-05T06:43:38;5.87;;;4.30;;
4674;SDS011;2351;50.812;12.872;2022-08-05T06:46:10;7.43;;;4.70;;
4674;SDS011;2351;50.812;12.872;2022-08-05T06:48:41;6.00;;;4.93;;
4674;SDS011;2351;50.812;12.872;2022-08-05T06:51:14;6.30;;;4.80;;
4674;SDS011;2351;50.812;12.872;2022-08-05T06:53:46;5.30;;;4.60;;
4674;SDS011;2351;50.812;12.872;2022-08-05T06:56:17;11.40;;;5.60;;
4674;SDS011;2351;50.812;12.872;2022-08-05T06:58:49;7.13;;;4.60;;
4674;SDS011;2351;50.812;12.872;2022-08-05T07:01:21;7.90;;;4.63;;
4674;SDS011;2351;50.812;12.872;2022-08-05T07:03:53;7.17;;;4.30;;
4674;SDS011;2351;50.812;12.872;2022-08-05T07:06:26;9.00;;;4.37;;
4674;SDS011;2351;50.812;12.872;2022-08-05T07:08:57;7.03;;;5.60;;
4674;SDS011;2351;50.812;12.872;2022-08-05T07:11:30;10.40;;;5.53;;
4674;SDS011;2351;50.812;12.872;2022-08-05T07:14:02;9.00;;;4.23;;
4674;SDS011;2351;50.812;12.872;2022-08-05T07:16:51;5.53;;;4.17;;
4674;SDS011;2351;50.812;12.872;2022-08-05T07:19:28;4.70;;;3.70;;
4674;SDS011;2351;50.812;12.872;2022-08-05T07:22:01;8.33;;;5.47;;
4674;SDS011;2351;50.812;12.872;2022-08-05T07:24:33;5.73;;;4.30;;
4674;SDS011;2351;50.812;12.872;2022-08-05T07:27:04;5.97;;;4.50;;
4674;SDS011;2351;50.812;12.872;2022-08-05T07:29:36;10.63;;;4.57;;
4674;SDS011;2351;50.812;12.872;2022-08-05T07:32:08;6.50;;;3.80;;
4674;SDS011;2351;50.812;12.872;2022-08-05T07:34:41;7.20;;;4.67;;
4674;SDS011;2351;50.812;12.872;2022-08-05T07:37:14;5.50;;;4.27;;
4674;SDS011;2351;50.812;12.872;2022-08-05T07:39:46;7.97;;;4.70;;
4674;SDS011;2351;50.812;12.872;2022-08-05T07:42:17;6.77;;;4.73;;
4674;SDS011;2351;50.812;12.872;2022-08-05T07:44:49;8.63;;;4.40;;
4674;SDS011;2351;50.812;12.872;2022-08-05T07:47:21;6.00;;;4.57;;
4674;SDS011;2351;50.812;12.872;2022-08-05T07:49:52;5.73;;;5.13;;
4674;SDS011;2351;50.812;12.872;2022-08-05T07:52:25;8.60;;;5.03;;
4674;SDS011;2351;50.812;12.872;2022-08-05T07:54:57;11.20;;;3.80;;
4674;SDS011;2351;50.812;12.872;2022-08-05T07:57:29;6.03;;;4.03;;
4674;SDS011;2351;50.812;12.872;2022-08-05T08:00:00;7.90;;;4.00;;
4674;SDS011;2351;50.812;12.872;2022-08-05T08:02:33;4.80;;;4.10;;
4674;SDS011;2351;50.812;12.872;2022-08-05T08:05:05;12.20;;;4.53;;
4674;SDS011;2351;50.812;12.872;2022-08-05T08:07:38;6.57;;;4.93;;
4674;SDS011;2351;50.812;12.872;2022-08-05T08:10:10;9.53;;;4.33;;
4674;SDS011;2351;50.812;12.872;2022-08-05T08:12:41;9.27;;;3.90;;
4674;SDS011;2351;50.812;12.872;2022-08-05T08:15:13;9.30;;;4.20;;
4674;SDS011;2351;50.812;12.872;2022-08-05T08:17:44;6.00;;;3.87;;
4674;SDS011;2351;50.812;12.872;2022-08-05T08:20:17;6.67;;;4.40;;
4674;SDS011;2351;50.812;12.872;2022-08-05T08:22:50;7.63;;;4.33;;
4674;SDS011;2351;50.812;12.872;2022-08-05T08:25:23;19.37;;;4.30;;
4674;SDS011;2351;50.812;12.872;2022-08-05T08:27:57;12.03;;;4.17;;
4674;SDS011;2351;50.812;12.872;2022-08-05T08:30:30;8.20;;;3.97;;
4674;SDS011;2351;50.812;12.872;2022-08-05T08:33:05;10.00;;;4.37;;
4674;SDS011;2351;50.812;12.872;2022-08-05T08:35:37;4.87;;;4.07;;
4674;SDS011;2351;50.812;12.872;2022-08-05T08:38:11;8.17;;;3.80;;
4674;SDS011;2351;50.812;12.872;2022-08-05T08:40:45;8.00;;;5.33;;
4674;SDS011;2351;50.812;12.872;2022-08-05T08:43:18;8.07;;;4.60;;
4674;SDS011;2351;50.812;12.872;2022-08-05T08:45:51;8.70;;;4.40;;
4674;SDS011;2351;50.812;12.872;2022-08-05T08:48:24;6.47;;;4.80;;
4674;SDS011;2351;50.812;12.872;2022-08-05T08:50:57;10.63;;;4.37;;
4674;SDS011;2351;50.812;12.872;2022-08-05T08:53:34;7.67;;;4.47;;
4674;SDS011;2351;50.812;12.872;2022-08-05T08:56:07;7.73;;;4.40;;
4674;SDS011;2351;50.812;12.872;2022-08-05T08:58:39;4.50;;;3.60;;
4674;SDS011;2351;50.812;12.872;2022-08-05T09:01:12;9.50;;;5.20;;
4674;SDS011;2351;50.812;12.872;2022-08-05T09:03:44;8.77;;;4.67;;
4674;SDS011;2351;50.812;12.872;2022-08-05T09:06:16;5.27;;;4.63;;
4674;SDS011;2351;50.812;12.872;2022-08-05T09:08:49;4.97;;;4.13;;
4674;SDS011;2351;50.812;12.872;2022-08-05T09:11:21;5.80;;;4.67;;
4674;SDS011;2351;50.812;12.872;2022-08-05T09:13:53;7.80;;;5.00;;
4674;SDS011;2351;50.812;12.872;2022-08-05T09:16:25;9.53;;;4.10;;
4674;SDS011;2351;50.812;12.872;2022-08-05T09:18:57;5.33;;;3.70;;
4674;SDS011;2351;50.812;12.872;2022-08-05T09:21:29;13.57;;;5.20;;
4674;SDS011;2351;50.812;12.872;2022-08-05T09:24:02;8.37;;;4.40;;
4674;SDS011;2351;50.812;12.872;2022-08-05T09:26:35;11.40;;;4.37;;
4674;SDS011;2351;50.812;12.872;2022-08-05T09:29:07;4.67;;;4.27;;
4674;SDS011;2351;50.812;12.872;2022-08-05T09:31:38;9.97;;;4.50;;
4674;SDS011;2351;50.812;12.872;2022-08-05T09:34:12;8.20;;;4.07;;
4674;SDS011;2351;50.812;12.872;2022-08-05T09:36:45;5.87;;;4.87;;
4674;SDS011;2351;50.812;12.872;2022-08-05T09:39:20;9.27;;;4.37;;
4674;SDS011;2351;50.812;12.872;2022-08-05T09:41:58;5.97;;;4.57;;
4674;SDS011;2351;50.812;12.872;2022-08-05T09:44:33;6.00;;;4.80;;
4674;SDS011;2351;50.812;12.872;2022-08-05T09:47:07;5.27;;;4.60;;
4674;SDS011;2351;50.812;12.872;2022-08-05T09:49:41;4.40;;;3.77;;
4674;SDS011;2351;50.812;12.872;2022-08-05T09:52:22;10.40;;;4.27;;
4674;SDS011;2351;50.812;12.872;2022-08-05T09:54:58;5.30;;;4.77;;
4674;SDS011;2351;50.812;12.872;2022-08-05T09:57:32;12.30;;;5.20;;
4674;SDS011;2351;50.812;12.872;2022-08-05T10:00:08;6.20;;;3.77;;
4674;SDS011;2351;50.812;12.872;2022-08-05T10:02:43;4.93;;;3.60;;
4674;SDS011;2351;50.812;12.872;2022-08-05T10:05:16;5.07;;;4.40;;
4674;SDS011;2351;50.812;12.872;2022-08-05T10:07:50;6.33;;;4.20;;
4674;SDS011;2351;50.812;12.872;2022-08-05T10:10:25;5.20;;;4.60;;
4674;SDS011;2351;50.812;12.872;2022-08-05T10:13:01;4.47;;;3.87;;
4674;SDS011;2351;50.812;12.872;2022-08-05T10:15:34;4.43;;;4.03;;
4674;SDS011;2351;50.812;12.872;2022-08-05T10:18:11;14.87;;;4.13;;
4674;SDS011;2351;50.812;12.872;2022-08-05T10:20:45;5.63;;;4.10;;
4674;SDS011;2351;50.812;12.872;2022-08-05T10:23:18;12.70;;;3.73;;
4674;SDS011;2351;50.812;12.872;2022-08-05T10:25:53;4.20;;;3.80;;
4674;SDS011;2351;50.812;12.872;2022-08-05T10:28:25;4.60;;;4.20;;
4674;SDS011;2351;50.812;12.872;2022-08-05T10:30:56;4.13;;;3.73;;
4674;SDS011;2351;50.812;12.872;2022-08-05T10:33:30;4.13;;;3.80;;
4674;SDS011;2351;50.812;12.872;2022-08-05T10:36:03;14.70;;;3.73;;
4674;SDS011;2351;50.812;12.872;2022-08-05T10:38:35;4.97;;;3.83;;
4674;SDS011;2351;50.812;12.872;2022-08-05T10:41:10;4.60;;;3.67;;
4674;SDS011;2351;50.812;12.872;2022-08-05T10:43:49;7.27;;;3.93;;
4674;SDS011;2351;50.812;12.872;2022-08-05T10:46:37;3.50;;;3.20;;
4674;SDS011;2351;50.812;12.872;2022-08-05T10:49:13;8.77;;;3.90;;
4674;SDS011;2351;50.812;12.872;2022-08-05T10:51:45;3.83;;;3.40;;
4674;SDS011;2351;50.812;12.872;2022-08-05T10:54:18;8.90;;;3.73;;
4674;SDS011;2351;50.812;12.872;2022-08-05T10:56:51;9.83;;;3.50;;
4674;SDS011;2351;50.812;12.872;2022-08-05T10:59:26;5.40;;;3.87;;
4674;SDS011;2351;50.812;12.872;2022-08-05T11:02:05;4.17;;;3.67;;
4674;SDS011;2351;50.812;12.872;2022-08-05T11:04:41;3.90;;;3.40;;
4674;SDS011;2351;50.812;12.872;2022-08-05T11:07:14;5.37;;;3.57;;
4674;SDS011;2351;50.812;12.872;2022-08-05T11:09:47;3.63;;;3.27;;
4674;SDS011;2351;50.812;12.872;2022-08-05T11:15:18;10.90;;;3.67;;
4674;SDS011;2351;50.812;12.872;2022-08-05T11:17:51;3.83;;;3.43;;
4674;SDS011;2351;50.812;12.872;2022-08-05T11:20:30;11.07;;;3.70;;
4674;SDS011;2351;50.812;12.872;2022-08-05T11:26:19;3.93;;;3.60;;
4674;SDS011;2351;50.812;12.872;2022-08-05T11:28:54;3.30;;;3.10;;
4674;SDS011;2351;50.812;12.872;2022-08-05T11:31:26;2.77;;;2.53;;
4674;SDS011;2351;50.812;12.872;2022-08-05T11:34:03;2.60;;;2.40;;
4674;SDS011;2351;50.812;12.872;2022-08-05T11:36:46;7.50;;;3.00;;
4674;SDS011;2351;50.812;12.872;2022-08-05T11:42:21;5.80;;;3.10;;
4674;SDS011;2351;50.812;12.872;2022-08-05T11:45:01;3.10;;;2.80;;
4674;SDS011;2351;50.812;12.872;2022-08-05T11:47:34;12.40;;;2.93;;
4674;SDS011;2351;50.812;12.872;2022-08-05T11:50:07;3.37;;;3.00;;
4674;SDS011;2351;50.812;12.872;2022-08-05T11:52:39;2.70;;;2.30;;
4674;SDS011;2351;50.812;12.872;2022-08-05T11:55:11;5.33;;;1.97;;
4674;SDS011;2351;50.812;12.872;2022-08-05T11:57:44;2.57;;;2.27;;
4674;SDS011;2351;50.812;12.872;2022-08-05T12:00:26;2.37;;;2.13;;
4674;SDS011;2351;50.812;12.872;2022-08-05T12:03:13;4.50;;;2.60;;
4674;SDS011;2351;50.812;12.872;2022-08-05T12:05:45;4.20;;;2.63;;
4674;SDS011;2351;50.812;12.872;2022-08-05T12:08:17;12.87;;;2.17;;
4674;SDS011;2351;50.812;12.872;2022-08-05T12:10:49;2.77;;;1.93;;
4674;SDS011;2351;50.812;12.872;2022-08-05T12:13:21;2.50;;;2.30;;
4674;SDS011;2351;50.812;12.872;2022-08-05T12:15:54;3.70;;;2.37;;
4674;SDS011;2351;50.812;12.872;2022-08-05T12:18:26;2.20;;;2.10;;
4674;SDS011;2351;50.812;12.872;2022-08-05T12:21:10;2.17;;;2.07;;
4674;SDS011;2351;50.812;12.872;2022-08-05T12:23:50;5.30;;;2.50;;
4674;SDS011;2351;50.812;12.872;2022-08-05T12:26:22;3.07;;;2.73;;
4674;SDS011;2351;50.812;12.872;2022-08-05T12:28:54;2.40;;;2.27;;
4674;SDS011;2351;50.812;12.872;2022-08-05T12:31:27;2.60;;;2.40;;
4674;SDS011;2351;50.812;12.872;2022-08-05T12:33:58;3.17;;;2.20;;
4674;SDS011;2351;50.812;12.872;2022-08-05T12:36:31;1.87;;;1.77;;
4674;SDS011;2351;50.812;12.872;2022-08-05T12:39:03;3.27;;;2.30;;
4674;SDS011;2351;50.812;12.872;2022-08-05T12:41:36;4.13;;;2.60;;
4674;SDS011;2351;50.812;12.872;2022-08-05T12:44:10;2.63;;;2.33;;
4674;SDS011;2351;50.812;12.872;2022-08-05T12:46:50;2.93;;;2.60;;
4674;SDS011;2351;50.812;12.872;2022-08-05T12:49:23;7.70;;;2.67;;
4674;SDS011;2351;50.812;12.872;2022-08-05T12:51:55;2.70;;;2.03;;
4674;SDS011;2351;50.812;12.872;2022-08-05T12:54:28;4.93;;;2.30;;
4674;SDS011;2351;50.812;12.872;2022-08-05T12:57:01;9.40;;;2.40;;
4674;SDS011;2351;50.812;12.872;2022-08-05T12:59:42;2.30;;;2.10;;
4674;SDS011;2351;50.812;12.872;2022-08-05T13:02:18;5.40;;;2.43;;
4674;SDS011;2351;50.812;12.872;2022-08-05T13:04:51;4.97;;;2.30;;
4674;SDS011;2351;50.812;12.872;2022-08-05T13:07:23;2.10;;;2.00;;
4674;SDS011;2351;50.812;12.872;2022-08-05T13:09:57;3.13;;;2.40;;
4674;SDS011;2351;50.812;12.872;2022-08-05T13:12:28;2.67;;;2.43;;
4674;SDS011;2351;50.812;12.872;2022-08-05T13:15:00;2.07;;;1.97;;
4674;SDS011;2351;50.812;12.872;2022-08-05T13:17:33;3.50;;;2.00;;
4674;SDS011;2351;50.812;12.872;2022-08-05T13:20:06;3.57;;;2.50;;
4674;SDS011;2351;50.812;12.872;2022-08-05T13:22:39;2.27;;;2.17;;
4674;SDS011;2351;50.812;12.872;2022-08-05T13:25:13;6.27;;;2.40;;
4674;SDS011;2351;50.812;12.872;2022-08-05T13:27:47;2.07;;;1.87;;
4674;SDS011;2351;50.812;12.872;2022-08-05T13:30:20;2.13;;;1.93;;
4674;SDS011;2351;50.812;12.872;2022-08-05T13:32:55;2.60;;;2.40;;
4674;SDS011;2351;50.812;12.872;2022-08-05T13:35:27;3.53;;;1.90;;
4674;SDS011;2351;50.812;12.872;2022-08-05T13:37:59;4.33;;;2.20;;
4674;SDS011;2351;50.812;12.872;2022-08-05T13:40:30;2.03;;;1.90;;
4674;SDS011;2351;50.812;12.872;2022-08-05T13:43:02;2.93;;;2.43;;
4674;SDS011;2351;50.812;12.872;2022-08-05T13:45:33;2.67;;;2.07;;
4674;SDS011;2351;50.812;12.872;2022-08-05T13:48:06;6.60;;;2.50;;
4674;SDS011;2351;50.812;12.872;2022-08-05T13:50:38;2.40;;;2.20;;
4674;SDS011;2351;50.812;12.872;2022-08-05T13:53:10;3.00;;;2.37;;
4674;SDS011;2351;50.812;12.872;2022-08-05T13:55:41;2.27;;;2.10;;
4674;SDS011;2351;50.812;12.872;2022-08-05T13:58:13;3.00;;;2.47;;
4674;SDS011;2351;50.812;12.872;2022-08-05T14:00:44;4.40;;;2.53;;
4674;SDS011;2351;50.812;12.872;2022-08-05T14:03:17;2.53;;;2.20;;
4674;SDS011;2351;50.812;12.872;2022-08-05T14:05:49;2.37;;;2.23;;
4674;SDS011;2351;50.812;12.872;2022-08-05T14:08:19;2.27;;;2.10;;
4674;SDS011;2351;50.812;12.872;2022-08-05T14:10:51;2.10;;;2.00;;
4674;SDS011;2351;50.812;12.872;2022-08-05T14:13:23;2.30;;;2.10;;
4674;SDS011;2351;50.812;12.872;2022-08-05T14:15:54;8.13;;;2.77;;
4674;SDS011;2351;50.812;12.872;2022-08-05T14:18:27;8.07;;;2.20;;
4674;SDS011;2351;50.812;12.872;2022-08-05T14:20:59;4.77;;;2.27;;
4674;SDS011;2351;50.812;12.872;2022-08-05T14:23:30;3.77;;;2.10;;
4674;SDS011;2351;50.812;12.872;2022-08-05T14:26:02;4.40;;;2.47;;
4674;SDS011;2351;50.812;12.872;2022-08-05T14:28:34;4.07;;;2.40;;
4674;SDS011;2351;50.812;12.872;2022-08-05T14:31:06;6.03;;;2.50;;
4674;SDS011;2351;50.812;12.872;2022-08-05T14:33:39;2.63;;;2.43;;
4674;SDS011;2351;50.812;12.872;2022-08-05T14:36:11;2.43;;;2.30;;
4674;SDS011;2351;50.812;12.872;2022-08-05T14:38:42;9.07;;;2.83;;
4674;SDS011;2351;50.812;12.872;2022-08-05T14:41:14;2.10;;;2.00;;
4674;SDS011;2351;50.812;12.872;2022-08-05T14:43:45;2.47;;;1.80;;
4674;SDS011;2351;50.812;12.872;2022-08-05T14:46:17;2.70;;;2.50;;
4674;SDS011;2351;50.812;12.872;2022-08-05T14:48:50;4.27;;;2.30;;
4674;SDS011;2351;50.812;12.872;2022-08-05T14:51:21;2.00;;;1.90;;
4674;SDS011;2351;50.812;12.872;2022-08-05T14:53:53;2.70;;;2.50;;
4674;SDS011;2351;50.812;12.872;2022-08-05T14:56:25;2.00;;;1.90;;
4674;SDS011;2351;50.812;12.872;2022-08-05T14:58:56;12.93;;;2.87;;
4674;SDS011;2351;50.812;12.872;2022-08-05T15:01:28;2.70;;;2.50;;
4674;SDS011;2351;50.812;12.872;2022-08-05T15:04:01;3.00;;;2.33;;
4674;SDS011;2351;50.812;12.872;2022-08-05T15:06:32;2.40;;;2.30;;
4674;SDS011;2351;50.812;12.872;2022-08-05T15:09:04;2.40;;;2.20;;
4674;SDS011;2351;50.812;12.872;2022-08-05T15:11:36;3.03;;;2.30;;
4674;SDS011;2351;50.812;12.872;2022-08-05T15:14:07;12.90;;;2.60;;
4674;SDS011;2351;50.812;12.872;2022-08-05T15:16:39;3.90;;;2.60;;
4674;SDS011;2351;50.812;12.872;2022-08-05T15:19:12;2.43;;;2.23;;
4674;SDS011;2351;50.812;12.872;2022-08-05T15:21:43;5.00;;;2.33;;
4674;SDS011;2351;50.812;12.872;2022-08-05T15:24:15;5.67;;;2.27;;
4674;SDS011;2351;50.812;12.872;2022-08-05T15:26:46;3.13;;;2.00;;
4674;SDS011;2351;50.812;12.872;2022-08-05T15:29:18;2.90;;;1.90;;
4674;SDS011;2351;50.812;12.872;2022-08-05T15:31:49;6.20;;;1.97;;
4674;SDS011;2351;50.812;12.872;2022-08-05T15:34:22;1.70;;;1.60;;
4674;SDS011;2351;50.812;12.872;2022-08-05T15:36:54;1.93;;;1.80;;
4674;SDS011;2351;50.812;12.872;2022-08-05T15:39:25;1.93;;;1.83;;
4674;SDS011;2351;50.812;12.872;2022-08-05T15:41:57;1.93;;;1.73;;
4674;SDS011;2351;50.812;12.872;2022-08-05T15:44:29;5.00;;;1.80;;
4674;SDS011;2351;50.812;12.872;2022-08-05T15:47:00;2.20;;;2.00;;